New Almelo, Kansas
Current Conditions -  °F | °C
As of 9:53 PM on Thursday 20 Nov 2014 (Local Time) from KHLC Reporting Station
Clear Clear  
Wind Chill: 22°   Ceiling: Unl
Heat Index: 27°   Visibility: 10mi
Dew Point: 18°   Wind: 5mph
Humidity: 69%   Direction: 80°E
Pressure: 30.12"   Gusts: NA
Location:  39.68°N, 99.7571°W
Report Text: KHLC 210353Z AUTO 08004KT 10SM CLR M03/M08 A3012 RMK AO2 SLP221 T10281078
Loading
Personal Weather Stations






























Interactive Weather Map New forecast layout! Learn more

10-Day Weather Forecast

Advertisements
Track Severe Weather on mobile